USSS

Koltsovo Airport

Airport
ICAO code
USSS
IATA Code
SVX
Summary
ICAO Region
EUR
ICAO Territory
Location

Koltsovo, Sverdlovsk Oblast,

Serving
Yekaterinburg
Elevation
764 ft
Coordinates
56° 44' 41" N , 60° 48' 11" E
Metar
USSS 280600Z 28009MPS 9999 SCT040CB M03/M15 Q1031 R26L/81//50 NOSIG RMK QFE752/1003

Description

Koltsovo Airport is an international airport located 16 km southeast of Yekaterinburg, Russia.

Runways

Designator Length Width Surface Rops
08L/26R 2497 43 ASP Yes/Yes
08R/26L 3025 45 CON Yes/Yes

Airport map

Aerial View

SKYbrary Partners:

Safety knowledge contributed by: